createdAt,value
2023-04-16T00:02:01.120Z,71.35
2023-04-16T00:04:28.285Z,71.29
2023-04-16T00:06:55.644Z,71.30
2023-04-16T00:09:22.651Z,71.72
2023-04-16T00:11:49.523Z,71.81
2023-04-16T00:14:16.420Z,70.99
2023-04-16T00:16:43.282Z,70.80
2023-04-16T00:19:10.345Z,69.77
2023-04-16T00:21:37.610Z,70.35
2023-04-16T00:24:04.488Z,71.26
2023-04-16T00:26:31.827Z,70.56
2023-04-16T00:28:58.786Z,71.48
2023-04-16T00:31:29.697Z,71.80
2023-04-16T00:33:56.854Z,72.49
2023-04-16T00:36:24.597Z,71.79
2023-04-16T00:38:51.649Z,71.12
2023-04-16T00:41:18.593Z,70.52
2023-04-16T00:43:46.416Z,70.09
2023-04-16T00:46:13.438Z,70.20
2023-04-16T00:48:41.160Z,70.21
2023-04-16T00:51:08.632Z,70.42
2023-04-16T00:53:35.711Z,70.45
2023-04-16T00:56:03.765Z,70.89
2023-04-16T00:58:30.912Z,70.78
2023-04-16T01:00:57.989Z,71.05
2023-04-16T01:03:25.872Z,70.70
2023-04-16T01:05:52.923Z,70.72
2023-04-16T01:08:21.808Z,70.03
2023-04-16T01:10:48.703Z,70.98
2023-04-16T01:13:15.627Z,71.67
2023-04-16T01:15:42.547Z,71.14
2023-04-16T01:18:16.823Z,71.59
2023-04-16T01:20:44.224Z,70.66
2023-04-16T01:23:11.932Z,71.32
2023-04-16T01:25:39.346Z,71.07
2023-04-16T01:28:06.658Z,70.65
2023-04-16T01:30:33.537Z,71.21
2023-04-16T01:33:01.757Z,71.48
2023-04-16T01:35:28.871Z,71.66
2023-04-16T01:37:56.062Z,71.31
2023-04-16T01:40:22.973Z,71.08
2023-04-16T01:42:50.017Z,71.07
2023-04-16T01:45:16.846Z,70.92
2023-04-16T01:47:44.018Z,70.26
2023-04-16T01:50:11.058Z,70.44
2023-04-16T01:52:38.137Z,70.74
2023-04-16T01:55:05.284Z,70.31
2023-04-16T01:57:32.238Z,70.21
2023-04-16T01:59:59.115Z,69.56
2023-04-16T02:02:28.535Z,69.81
2023-04-16T02:04:55.393Z,69.93
2023-04-16T02:07:22.226Z,69.64
2023-04-16T02:09:51.025Z,69.75
2023-04-16T02:12:18.122Z,69.47
2023-04-16T02:14:45.130Z,69.45
2023-04-16T02:17:12.351Z,69.74
2023-04-16T02:19:39.425Z,69.89
2023-04-16T02:22:07.214Z,70.08
2023-04-16T02:24:34.173Z,69.92
2023-04-16T02:27:01.792Z,70.89
2023-04-16T02:29:28.692Z,70.45
2023-04-16T02:31:55.597Z,70.61
2023-04-16T02:34:22.798Z,70.93
2023-04-16T02:36:49.700Z,70.84
2023-04-16T02:39:16.989Z,70.85
2023-04-16T02:41:43.960Z,71.06
2023-04-16T02:44:10.896Z,71.18
2023-04-16T02:46:38.064Z,70.99
2023-04-16T02:49:05.032Z,71.19
2023-04-16T02:51:33.637Z,70.91
2023-04-16T02:54:01.212Z,70.81
2023-04-16T02:56:28.057Z,71.58
2023-04-16T02:58:55.098Z,72.04
2023-04-16T03:01:21.938Z,72.93
2023-04-16T03:03:48.938Z,72.75
2023-04-16T03:06:15.895Z,73.08
2023-04-16T03:08:42.976Z,73.30
2023-04-16T03:11:10.014Z,73.38
2023-04-16T03:13:36.912Z,73.55
2023-04-16T03:16:03.915Z,73.76
2023-04-16T03:18:30.873Z,73.86
2023-04-16T03:20:57.886Z,74.27
2023-04-16T03:23:24.746Z,74.61
2023-04-16T03:25:51.577Z,75.18
2023-04-16T03:28:18.518Z,75.13
2023-04-16T03:30:52.075Z,74.45
2023-04-16T03:33:19.886Z,74.66
2023-04-16T03:35:46.917Z,73.86
2023-04-16T03:38:13.867Z,73.92
2023-04-16T03:40:41.451Z,73.83
2023-04-16T03:43:08.333Z,73.96
2023-04-16T03:45:35.361Z,73.66
2023-04-16T03:48:02.278Z,73.82
2023-04-16T03:50:29.261Z,74.03
2023-04-16T03:52:56.181Z,73.85
2023-04-16T03:55:23.036Z,73.69
2023-04-16T03:57:49.988Z,73.43
2023-04-16T04:00:16.935Z,73.71
2023-04-16T04:02:44.110Z,74.04
2023-04-16T04:05:11.227Z,74.14
2023-04-16T04:07:38.170Z,74.23
2023-04-16T04:10:05.639Z,74.06
2023-04-16T04:12:32.584Z,74.12
2023-04-16T04:14:59.458Z,73.59
2023-04-16T04:17:26.424Z,73.55
2023-04-16T04:20:01.312Z,73.27
2023-04-16T04:22:29.148Z,73.01
2023-04-16T04:24:56.108Z,72.77
2023-04-16T04:27:23.001Z,73.23
2023-04-16T04:29:50.003Z,72.78
2023-04-16T04:32:16.933Z,73.20
2023-04-16T04:34:43.846Z,74.02
2023-04-16T04:37:10.691Z,74.04
2023-04-16T04:39:37.558Z,73.90
2023-04-16T04:42:04.474Z,74.10
2023-04-16T04:44:31.507Z,73.57
2023-04-16T04:46:58.515Z,73.50
2023-04-16T04:49:25.394Z,73.56
2023-04-16T04:51:52.351Z,73.18
2023-04-16T04:54:19.184Z,72.52
2023-04-16T04:56:46.840Z,72.10
2023-04-16T04:59:13.743Z,72.58
2023-04-16T05:01:41.456Z,72.86
2023-04-16T05:04:08.513Z,72.74
2023-04-16T05:06:35.702Z,72.75
2023-04-16T05:09:02.871Z,72.73
2023-04-16T05:11:30.037Z,73.11
2023-04-16T05:13:57.205Z,73.08
2023-04-16T05:16:24.340Z,72.39
2023-04-16T05:18:51.314Z,73.08
2023-04-16T05:21:18.270Z,72.73
2023-04-16T05:23:45.102Z,73.02
2023-04-16T05:26:12.000Z,73.28
2023-04-16T05:28:38.953Z,73.29
2023-04-16T05:31:05.786Z,73.65
2023-04-16T05:33:32.852Z,73.48
2023-04-16T05:35:59.825Z,73.99
2023-04-16T05:38:26.674Z,74.51
2023-04-16T05:40:53.597Z,74.74
2023-04-16T05:43:20.648Z,74.11
2023-04-16T05:45:47.484Z,74.09
2023-04-16T05:48:14.821Z,74.39
2023-04-16T05:50:41.723Z,73.91
2023-04-16T05:53:09.336Z,73.27
2023-04-16T05:55:37.163Z,74.00
2023-04-16T05:58:07.024Z,73.99
2023-04-16T06:00:33.859Z,73.90
2023-04-16T06:03:01.558Z,73.84
2023-04-16T06:05:29.411Z,73.63
2023-04-16T06:07:56.677Z,73.65
2023-04-16T06:10:23.686Z,73.48
2023-04-16T06:12:50.621Z,73.05
2023-04-16T06:15:17.614Z,73.28
2023-04-16T06:17:44.619Z,73.31
2023-04-16T06:20:14.610Z,72.54
2023-04-16T06:22:41.406Z,72.13
2023-04-16T06:25:09.639Z,71.98
2023-04-16T06:27:36.823Z,72.02
2023-04-16T06:30:03.863Z,71.29
2023-04-16T06:32:30.949Z,71.69
2023-04-16T06:34:59.075Z,70.94
2023-04-16T06:37:26.018Z,70.69
2023-04-16T06:39:53.025Z,70.29
2023-04-16T06:42:20.479Z,70.62
2023-04-16T06:44:47.965Z,70.41
2023-04-16T06:47:14.857Z,69.47
2023-04-16T06:49:41.792Z,70.06
2023-04-16T06:52:08.799Z,70.10
2023-04-16T06:54:36.137Z,69.42
2023-04-16T06:57:03.104Z,70.06
2023-04-16T06:59:30.085Z,70.11
2023-04-16T07:01:57.255Z,70.46
2023-04-16T07:04:24.436Z,70.90
2023-04-16T07:06:51.560Z,69.73
2023-04-16T07:09:18.544Z,69.79
2023-04-16T07:11:45.525Z,69.66
2023-04-16T07:14:12.493Z,69.72
2023-04-16T07:16:39.488Z,69.65
2023-04-16T07:19:06.456Z,69.75
2023-04-16T07:21:33.362Z,69.20
2023-04-16T07:24:01.123Z,69.58
2023-04-16T07:26:28.078Z,69.51
2023-04-16T07:28:54.909Z,68.88
2023-04-16T07:31:22.177Z,69.35
2023-04-16T07:33:49.165Z,69.12
2023-04-16T07:36:16.049Z,68.74
2023-04-16T07:38:42.882Z,69.19
2023-04-16T07:41:09.796Z,69.30
2023-04-16T07:43:36.854Z,68.89
2023-04-16T07:46:03.798Z,68.66
2023-04-16T07:48:30.847Z,68.58
2023-04-16T07:50:58.040Z,68.29
2023-04-16T07:53:24.892Z,67.81
2023-04-16T07:55:51.735Z,67.46
2023-04-16T07:58:18.624Z,67.19
2023-04-16T08:00:46.083Z,67.27
2023-04-16T08:03:13.057Z,66.64
2023-04-16T08:05:40.302Z,66.11
2023-04-16T08:08:07.205Z,65.54
2023-04-16T08:10:34.269Z,64.83
2023-04-16T08:13:02.137Z,64.65
2023-04-16T08:15:29.654Z,64.95
2023-04-16T08:17:56.685Z,63.89
2023-04-16T08:20:23.718Z,62.44
2023-04-16T08:22:50.612Z,62.52
2023-04-16T08:25:17.598Z,62.08
2023-04-16T08:27:44.507Z,62.13
2023-04-16T08:30:11.507Z,62.20
2023-04-16T08:32:38.569Z,62.85
2023-04-16T08:35:06.206Z,62.55
2023-04-16T08:37:33.092Z,62.31
2023-04-16T08:40:01.191Z,61.39
2023-04-16T08:42:45.449Z,61.18
2023-04-16T08:45:19.702Z,61.94
2023-04-16T08:47:48.176Z,60.02
2023-04-16T08:50:23.290Z,60.24
2023-04-16T08:53:11.268Z,59.80
2023-04-16T08:55:40.616Z,60.97
2023-04-16T08:58:18.339Z,61.10
2023-04-16T09:00:46.646Z,60.28
2023-04-16T09:03:13.802Z,59.20
2023-04-16T09:05:41.165Z,59.80
2023-04-16T09:08:08.205Z,59.40
2023-04-16T09:10:35.196Z,59.34
2023-04-16T09:13:02.210Z,59.50
2023-04-16T09:15:29.798Z,59.75
2023-04-16T09:17:57.925Z,59.76
2023-04-16T09:20:25.092Z,59.76
2023-04-16T09:22:51.945Z,59.82
2023-04-16T09:25:20.991Z,58.57
2023-04-16T09:27:50.175Z,59.39
2023-04-16T09:30:27.925Z,58.36
2023-04-16T09:33:22.810Z,58.05
2023-04-16T09:35:52.097Z,57.33
2023-04-16T09:38:20.078Z,57.39
2023-04-16T09:40:49.827Z,56.79
2023-04-16T09:43:18.327Z,58.51
2023-04-16T09:45:52.310Z,58.06
2023-04-16T09:48:32.618Z,57.25
2023-04-16T09:51:00.780Z,57.08
2023-04-16T09:53:31.410Z,57.81
2023-04-16T09:56:06.307Z,57.03
2023-04-16T09:58:33.521Z,57.18
2023-04-16T10:01:10.769Z,56.86
2023-04-16T10:03:40.038Z,57.16
2023-04-16T10:06:21.308Z,56.42
2023-04-16T10:08:50.229Z,56.31
2023-04-16T10:11:17.824Z,56.32
2023-04-16T10:13:44.754Z,55.83
2023-04-16T10:16:11.829Z,54.60
2023-04-16T10:18:42.715Z,54.64
2023-04-16T10:21:12.277Z,54.65
2023-04-16T10:23:42.964Z,54.98
2023-04-16T10:26:09.962Z,54.75
2023-04-16T10:28:37.242Z,54.23
2023-04-16T10:31:06.176Z,56.20
2023-04-16T10:33:35.053Z,55.25
2023-04-16T10:36:15.674Z,55.62
2023-04-16T10:38:46.798Z,55.94
2023-04-16T10:41:14.077Z,55.96
2023-04-16T10:43:48.016Z,56.04
2023-04-16T10:46:31.083Z,56.64
2023-04-16T10:49:01.332Z,56.31
2023-04-16T10:51:31.926Z,56.53
2023-04-16T10:54:23.450Z,56.15
2023-04-16T10:56:50.892Z,55.82
2023-04-16T10:59:21.913Z,55.21
2023-04-16T11:01:56.882Z,55.45
2023-04-16T11:04:24.034Z,55.27
2023-04-16T11:07:15.637Z,55.27
2023-04-16T11:10:04.401Z,55.25
2023-04-16T11:12:35.141Z,54.84
2023-04-16T11:15:06.505Z,55.63
2023-04-16T11:17:40.610Z,54.70
2023-04-16T11:20:18.977Z,54.81
2023-04-16T11:22:48.321Z,55.11
2023-04-16T11:25:30.155Z,54.72
2023-04-16T11:27:59.373Z,54.47
2023-04-16T11:30:37.005Z,54.50
2023-04-16T11:33:12.930Z,54.21
2023-04-16T11:35:39.943Z,53.90
2023-04-16T11:38:07.815Z,54.07
2023-04-16T11:40:35.040Z,54.30
2023-04-16T11:43:17.547Z,54.77
2023-04-16T11:46:00.660Z,54.89
2023-04-16T11:48:48.106Z,55.44
2023-04-16T11:51:15.308Z,55.23
2023-04-16T11:53:53.316Z,56.09
2023-04-16T11:56:31.320Z,55.89
2023-04-16T11:59:09.039Z,55.57
2023-04-16T12:01:37.075Z,55.63
2023-04-16T12:04:04.498Z,56.53
2023-04-16T12:06:33.235Z,56.19
2023-04-16T12:09:25.854Z,55.90
2023-04-16T12:11:53.321Z,56.08
2023-04-16T12:14:20.547Z,55.68
2023-04-16T12:17:50.976Z,56.56
2023-04-16T12:20:17.812Z,56.28
2023-04-16T12:22:49.803Z,56.39
2023-04-16T12:25:18.397Z,55.64
2023-04-16T12:27:53.411Z,55.61
2023-04-16T12:30:22.814Z,56.34
2023-04-16T12:33:14.968Z,56.09
2023-04-16T12:35:43.665Z,55.74
2023-04-16T12:38:10.889Z,56.34
2023-04-16T12:40:38.768Z,56.91
2023-04-16T12:43:05.681Z,56.79
2023-04-16T12:45:32.584Z,57.22
2023-04-16T12:47:59.660Z,56.94
2023-04-16T12:50:26.596Z,56.80
2023-04-16T12:52:53.481Z,56.93
2023-04-16T12:55:20.350Z,57.02
2023-04-16T12:57:49.206Z,57.26
2023-04-16T13:00:16.484Z,58.09
2023-04-16T13:02:43.421Z,57.81
2023-04-16T13:05:10.552Z,57.92
2023-04-16T13:07:37.634Z,57.36
2023-04-16T13:10:05.818Z,57.92
2023-04-16T13:12:32.997Z,57.58
2023-04-16T13:14:59.964Z,56.94
2023-04-16T13:17:26.795Z,57.00
2023-04-16T13:19:54.047Z,56.91
2023-04-16T13:22:21.009Z,57.53
2023-04-16T13:24:48.050Z,58.38
2023-04-16T13:27:16.518Z,58.36
2023-04-16T13:29:43.537Z,58.89
2023-04-16T13:32:10.507Z,59.61
2023-04-16T13:34:37.401Z,59.62
2023-04-16T13:37:04.852Z,60.20
2023-04-16T13:39:31.671Z,60.00
2023-04-16T13:41:58.640Z,59.47
2023-04-16T13:44:25.793Z,60.03
2023-04-16T13:46:53.157Z,60.04
2023-04-16T13:49:20.414Z,60.45
2023-04-16T13:51:47.333Z,60.38
2023-04-16T13:54:14.235Z,59.92
2023-04-16T13:56:41.088Z,60.21
2023-04-16T13:59:08.491Z,60.56
2023-04-16T14:01:36.073Z,60.68
2023-04-16T14:04:06.782Z,60.69
2023-04-16T14:06:34.737Z,61.09
2023-04-16T14:09:02.209Z,61.30
2023-04-16T14:11:29.177Z,61.68
2023-04-16T14:13:56.084Z,61.87
2023-04-16T14:16:23.357Z,61.34
2023-04-16T14:18:52.152Z,61.64
2023-04-16T14:21:19.465Z,62.19
2023-04-16T14:23:47.102Z,61.94
2023-04-16T14:26:13.998Z,61.86
2023-04-16T14:28:41.339Z,62.54
2023-04-16T14:31:08.329Z,62.46
2023-04-16T14:33:35.188Z,62.79
2023-04-16T14:36:03.338Z,63.79
2023-04-16T14:38:31.463Z,63.86
2023-04-16T14:40:58.540Z,63.59
2023-04-16T14:43:25.562Z,63.07
2023-04-16T14:45:52.952Z,62.56
2023-04-16T14:48:20.056Z,63.51
2023-04-16T14:50:47.113Z,62.31
2023-04-16T14:53:14.019Z,63.00
2023-04-16T14:55:40.915Z,62.95
2023-04-16T14:58:07.799Z,63.86
2023-04-16T15:00:35.757Z,63.61
2023-04-16T15:03:02.813Z,64.12
2023-04-16T15:05:31.042Z,64.27
2023-04-16T15:07:57.995Z,63.60
2023-04-16T15:10:25.001Z,63.48
2023-04-16T15:12:51.857Z,62.94
2023-04-16T15:15:18.923Z,63.86
2023-04-16T15:17:46.044Z,64.26
2023-04-16T15:20:13.281Z,64.45
2023-04-16T15:22:40.472Z,64.33
2023-04-16T15:25:08.267Z,64.74
2023-04-16T15:27:35.223Z,64.09
2023-04-16T15:30:02.222Z,63.17
2023-04-16T15:32:29.349Z,63.07
2023-04-16T15:34:56.366Z,62.75
2023-04-16T15:37:24.175Z,62.67
2023-04-16T15:39:51.138Z,63.09
2023-04-16T15:42:18.363Z,62.69
2023-04-16T15:44:45.674Z,62.92
2023-04-16T15:47:12.598Z,62.71
2023-04-16T15:49:39.662Z,63.00
2023-04-16T15:52:07.147Z,62.60
2023-04-16T15:54:34.166Z,63.68
2023-04-16T15:57:01.957Z,63.45
2023-04-16T15:59:28.896Z,63.93
2023-04-16T16:01:55.964Z,63.59
2023-04-16T16:04:23.391Z,64.01
2023-04-16T16:06:50.509Z,63.62
2023-04-16T16:09:17.472Z,64.09
2023-04-16T16:11:44.490Z,63.89
2023-04-16T16:14:11.646Z,63.55
2023-04-16T16:16:39.855Z,64.05
2023-04-16T16:19:07.034Z,64.20
2023-04-16T16:21:33.979Z,64.61
2023-04-16T16:24:01.635Z,64.55
2023-04-16T16:26:29.225Z,64.90
2023-04-16T16:28:57.343Z,65.32
2023-04-16T16:31:24.773Z,65.26
2023-04-16T16:33:51.895Z,65.67
2023-04-16T16:36:18.900Z,65.78
2023-04-16T16:38:47.890Z,65.67
2023-04-16T16:41:14.903Z,65.09
2023-04-16T16:43:41.934Z,65.34
2023-04-16T16:46:10.008Z,65.48
2023-04-16T16:48:36.991Z,65.10
2023-04-16T16:51:03.987Z,64.78
2023-04-16T16:53:30.884Z,64.45
2023-04-16T16:55:57.727Z,64.92
2023-04-16T16:58:24.684Z,64.90
2023-04-16T17:00:51.704Z,64.63
2023-04-16T17:03:18.871Z,64.80
2023-04-16T17:05:46.225Z,65.21
2023-04-16T17:08:14.019Z,64.93
2023-04-16T17:10:41.037Z,65.21
2023-04-16T17:13:07.884Z,64.82
2023-04-16T17:15:34.910Z,65.07
2023-04-16T17:18:01.900Z,65.29
2023-04-16T17:20:28.948Z,65.05
2023-04-16T17:22:55.983Z,64.95
2023-04-16T17:25:22.928Z,65.35
2023-04-16T17:27:49.773Z,65.63
2023-04-16T17:30:17.217Z,66.23
2023-04-16T17:32:44.184Z,66.14
2023-04-16T17:35:11.554Z,65.90
2023-04-16T17:37:38.644Z,66.23
2023-04-16T17:40:08.006Z,66.67
2023-04-16T17:42:36.410Z,66.99
2023-04-16T17:45:03.713Z,66.88
2023-04-16T17:47:30.620Z,66.92
2023-04-16T17:49:57.539Z,66.82
2023-04-16T17:52:24.407Z,66.79
2023-04-16T17:54:53.332Z,66.71
2023-04-16T17:57:20.358Z,66.87
2023-04-16T17:59:47.383Z,66.95
2023-04-16T18:02:14.355Z,67.22
2023-04-16T18:04:41.499Z,66.97
2023-04-16T18:07:08.592Z,67.40
2023-04-16T18:09:36.151Z,67.19
2023-04-16T18:12:03.198Z,67.25
2023-04-16T18:14:30.080Z,67.56
2023-04-16T18:16:58.626Z,67.97
2023-04-16T18:19:25.580Z,67.85
2023-04-16T18:21:52.434Z,68.17
2023-04-16T18:24:19.502Z,68.02
2023-04-16T18:26:47.189Z,68.29
2023-04-16T18:29:14.686Z,68.67
2023-04-16T18:31:42.544Z,68.96
2023-04-16T18:34:09.937Z,69.03
2023-04-16T18:36:37.178Z,69.36
2023-04-16T18:39:04.093Z,69.31
2023-04-16T18:41:31.493Z,69.63
2023-04-16T18:43:58.940Z,69.18
2023-04-16T18:46:27.014Z,68.80
2023-04-16T18:48:54.290Z,69.05
2023-04-16T18:51:21.592Z,69.51
2023-04-16T18:53:48.623Z,69.45
2023-04-16T18:56:15.592Z,69.77
2023-04-16T18:58:43.355Z,69.87
2023-04-16T19:01:13.183Z,70.05
2023-04-16T19:03:40.159Z,70.29
2023-04-16T19:06:07.307Z,70.00
2023-04-16T19:08:34.198Z,69.87
2023-04-16T19:11:01.144Z,70.32
2023-04-16T19:13:30.648Z,70.30
2023-04-16T19:16:00.001Z,70.67
2023-04-16T19:18:27.049Z,70.46
2023-04-16T19:21:01.105Z,70.17
2023-04-16T19:23:28.323Z,70.07
2023-04-16T19:25:58.426Z,70.29
2023-04-16T19:28:25.836Z,70.24
2023-04-16T19:30:53.562Z,70.37
2023-04-16T19:33:20.621Z,70.51
2023-04-16T19:35:47.626Z,70.28
2023-04-16T19:38:14.549Z,70.52
2023-04-16T19:40:45.947Z,69.70
2023-04-16T19:43:13.126Z,69.55
2023-04-16T19:45:47.010Z,69.32
2023-04-16T19:48:14.791Z,68.84
2023-04-16T19:50:42.824Z,69.04
2023-04-16T19:53:10.490Z,69.12
2023-04-16T19:55:40.143Z,69.96
2023-04-16T19:58:07.649Z,69.76
2023-04-16T20:00:36.435Z,70.21
2023-04-16T20:03:03.693Z,70.36
2023-04-16T20:05:30.942Z,70.07
2023-04-16T20:07:57.877Z,70.46
2023-04-16T20:10:24.894Z,70.19
2023-04-16T20:12:51.912Z,70.61
2023-04-16T20:15:18.931Z,70.75
2023-04-16T20:17:46.320Z,71.18
2023-04-16T20:20:16.059Z,71.39
2023-04-16T20:22:43.555Z,71.10
2023-04-16T20:25:10.605Z,71.50
2023-04-16T20:27:37.662Z,71.01
2023-04-16T20:30:06.345Z,71.14
2023-04-16T20:32:33.434Z,71.08
2023-04-16T20:35:00.432Z,71.02
2023-04-16T20:37:29.267Z,71.41
2023-04-16T20:39:56.565Z,71.93
2023-04-16T20:42:23.654Z,71.95
2023-04-16T20:44:56.020Z,72.01
2023-04-16T20:47:23.123Z,71.76
2023-04-16T20:49:51.194Z,71.66
2023-04-16T20:52:18.292Z,71.69
2023-04-16T20:54:45.152Z,71.54
2023-04-16T20:57:12.258Z,70.87
2023-04-16T20:59:39.148Z,70.98
2023-04-16T21:02:06.358Z,70.96
2023-04-16T21:04:33.447Z,70.71
2023-04-16T21:07:03.545Z,70.49
2023-04-16T21:09:31.351Z,70.69
2023-04-16T21:11:58.439Z,70.02
2023-04-16T21:14:25.357Z,70.20
2023-04-16T21:16:52.356Z,70.04
2023-04-16T21:19:19.304Z,70.59
2023-04-16T21:21:47.027Z,70.39
2023-04-16T21:24:14.005Z,70.30
2023-04-16T21:26:41.085Z,70.73
2023-04-16T21:29:08.046Z,70.81
2023-04-16T21:31:35.032Z,70.50
2023-04-16T21:34:01.961Z,70.82
2023-04-16T21:36:32.113Z,70.61
2023-04-16T21:38:59.197Z,70.17
2023-04-16T21:41:26.799Z,70.28
2023-04-16T21:43:53.764Z,70.27
2023-04-16T21:46:21.274Z,70.52
2023-04-16T21:48:48.889Z,70.39
2023-04-16T21:51:15.935Z,70.78
2023-04-16T21:53:43.077Z,70.74
2023-04-16T21:56:09.955Z,71.01
2023-04-16T21:58:36.928Z,70.91
2023-04-16T22:01:03.818Z,71.14
2023-04-16T22:03:31.325Z,71.20
2023-04-16T22:06:02.259Z,70.85
2023-04-16T22:08:29.791Z,70.87
2023-04-16T22:11:00.336Z,70.97
2023-04-16T22:13:28.115Z,71.25
2023-04-16T22:15:55.067Z,71.02
2023-04-16T22:18:24.535Z,70.95
2023-04-16T22:20:54.965Z,71.06
2023-04-16T22:23:23.936Z,70.78
2023-04-16T22:25:53.360Z,70.68
2023-04-16T22:28:20.081Z,70.60
2023-04-16T22:30:46.908Z,70.36
2023-04-16T22:33:13.699Z,69.92
2023-04-16T22:35:40.931Z,70.67
2023-04-16T22:38:08.097Z,70.65
2023-04-16T22:40:34.997Z,70.64
2023-04-16T22:43:01.689Z,70.81
2023-04-16T22:45:29.005Z,70.95
2023-04-16T22:47:56.295Z,70.95
2023-04-16T22:50:23.332Z,71.08
2023-04-16T22:52:49.995Z,71.10
2023-04-16T22:55:17.149Z,71.16
2023-04-16T22:57:44.935Z,70.91
2023-04-16T23:00:16.141Z,70.92
2023-04-16T23:02:43.386Z,71.14
2023-04-16T23:05:10.250Z,71.32
2023-04-16T23:07:37.976Z,70.88
2023-04-16T23:10:04.838Z,70.95
2023-04-16T23:12:31.548Z,70.65
2023-04-16T23:14:58.439Z,70.77
2023-04-16T23:17:25.436Z,71.12
2023-04-16T23:19:52.364Z,71.28
2023-04-16T23:22:19.049Z,70.99
2023-04-16T23:24:46.139Z,71.12
2023-04-16T23:27:12.769Z,70.75
2023-04-16T23:29:39.465Z,70.85
2023-04-16T23:32:06.188Z,70.98
2023-04-16T23:34:33.071Z,70.95
2023-04-16T23:36:59.821Z,71.09
2023-04-16T23:39:27.698Z,71.32
2023-04-16T23:41:54.366Z,71.75
2023-04-16T23:44:21.209Z,71.77
2023-04-16T23:46:48.125Z,72.35
2023-04-16T23:49:15.056Z,72.31
2023-04-16T23:51:42.151Z,72.20
2023-04-16T23:54:08.815Z,72.27
2023-04-16T23:56:35.676Z,72.13
2023-04-16T23:59:02.365Z,72.17
